Time;durP1;ratioP1;P1;durP2;ratioP2;P2;SDS_P1;SDS_P2;PMS_P1;PMS_P2;Temp;Humidity;BMP_temperature;BMP_pressure;BME280_temperature;BME280_humidity;BME280_pressure;Samples;Min_cycle;Max_cycle;Signal;HPM_P1;HPM_P2
2022/08/09 00:00:47;;;;;;;10.35;7.47;;;;;;;16.53;69.51;97903.83;1759552;81;25791;-75
2022/08/09 00:03:14;;;;;;;12.13;8.03;;;;;;;16.53;69.47;97901.64;1759857;81;25641;-76
2022/08/09 00:05:41;;;;;;;10.58;7.67;;;;;;;16.50;69.50;97898.02;1759549;81;28287;-75
2022/08/09 00:08:09;;;;;;;12.58;8.10;;;;;;;16.48;69.53;97897.42;1759426;80;25717;-75
2022/08/09 00:10:37;;;;;;;12.73;7.42;;;;;;;16.45;69.51;97893.80;1759801;81;25749;-75
2022/08/09 00:13:05;;;;;;;11.83;7.30;;;;;;;16.43;69.53;97897.29;1759653;80;25706;-75
2022/08/09 00:15:32;;;;;;;10.50;6.62;;;;;;;16.40;69.52;97897.78;1759927;81;25721;-75
2022/08/09 00:17:59;;;;;;;12.23;7.22;;;;;;;16.35;69.57;97894.92;1759771;81;27435;-76
2022/08/09 00:20:26;;;;;;;9.90;7.30;;;;;;;16.32;69.61;97893.50;1759923;81;25712;-75
2022/08/09 00:22:52;;;;;;;7.22;6.40;;;;;;;16.31;69.64;97899.17;1759992;81;25183;-76
2022/08/09 00:25:19;;;;;;;9.85;6.87;;;;;;;16.29;69.70;97905.42;1759914;81;26516;-75
2022/08/09 00:27:45;;;;;;;10.70;7.03;;;;;;;16.26;69.77;97909.97;1759856;80;25737;-76
2022/08/09 00:30:12;;;;;;;14.33;7.70;;;;;;;16.19;69.76;97902.72;1759933;81;27367;-76
2022/08/09 00:32:40;;;;;;;11.40;6.65;;;;;;;16.15;69.90;97905.64;1759851;81;25794;-76
2022/08/09 00:35:07;;;;;;;9.23;6.47;;;;;;;16.13;69.97;97904.20;1760015;81;25708;-76
2022/08/09 00:37:34;;;;;;;8.53;5.72;;;;;;;16.10;70.00;97902.78;1759862;81;25785;-76
2022/08/09 00:40:00;;;;;;;11.50;6.28;;;;;;;16.03;70.01;97903.43;1759720;81;25692;-76
2022/08/09 00:42:27;;;;;;;12.73;6.75;;;;;;;15.99;70.08;97899.50;1759914;80;27368;-76
2022/08/09 00:44:54;;;;;;;9.98;6.85;;;;;;;15.95;70.12;97903.74;1759842;80;25915;-75
2022/08/09 00:47:22;;;;;;;10.68;6.33;;;;;;;15.92;70.14;97905.59;1759947;81;25691;-75
2022/08/09 00:49:49;;;;;;;8.65;6.53;;;;;;;15.91;70.19;97899.84;1759885;81;25681;-76
2022/08/09 00:52:16;;;;;;;8.45;5.92;;;;;;;15.88;70.25;97903.03;1759958;81;25668;-77
2022/08/09 00:54:42;;;;;;;10.03;6.10;;;;;;;15.85;70.35;97907.58;1759729;81;28105;-75
2022/08/09 00:57:09;;;;;;;11.28;6.45;;;;;;;15.85;70.39;97902.12;1759806;81;25685;-76
2022/08/09 00:59:35;;;;;;;9.73;6.10;;;;;;;15.80;70.44;97897.93;1759595;81;25803;-77
2022/08/09 01:02:02;;;;;;;9.60;6.50;;;;;;;15.72;70.41;97896.34;1759084;81;25906;-77
2022/08/09 01:05:08;;;;;;;11.93;6.83;;;;;;;15.68;70.54;97897.06;1759526;81;25444;-75
2022/08/09 01:08:03;;;;;;;9.80;6.90;;;;;;;15.69;70.62;97904.17;1759410;81;27382;-76
2022/08/09 01:11:15;;;;;;;9.15;6.65;;;;;;;15.66;70.68;97901.91;1759395;81;25815;-74
2022/08/09 01:14:02;;;;;;;9.05;6.35;;;;;;;15.65;70.67;97909.77;1719281;83;25686;-76
2022/08/09 01:16:43;;;;;;;10.70;6.80;;;;;;;15.63;70.79;97901.00;1706225;84;25731;-75
2022/08/09 01:19:45;;;;;;;9.35;6.67;;;;;;;15.58;70.78;97896.80;1723103;83;25727;-76
2022/08/09 01:22:32;;;;;;;10.88;7.22;;;;;;;15.49;70.98;97897.59;1707500;83;27571;-75
2022/08/09 01:25:45;;;;;;;11.78;6.35;;;;;;;15.47;71.17;97901.91;1707437;83;25868;-76
2022/08/09 01:28:13;;;;;;;11.35;6.80;;;;;;;15.47;71.27;97903.80;1686804;84;25899;-76
2022/08/09 01:30:42;;;;;;;10.50;7.17;;;;;;;15.46;71.39;97896.69;1707813;83;26440;-76
2022/08/09 01:33:10;;;;;;;8.43;6.00;;;;;;;15.45;71.43;97901.34;1707812;84;25474;-75
2022/08/09 01:36:04;;;;;;;10.85;6.75;;;;;;;15.45;71.49;97902.70;1707723;84;28128;-76
2022/08/09 01:38:35;;;;;;;16.82;6.85;;;;;;;15.46;71.61;97900.77;1707395;83;25819;-75
2022/08/09 01:41:22;;;;;;;8.73;6.35;;;;;;;15.46;71.69;97900.24;1704601;84;25743;-76
2022/08/09 01:43:52;;;;;;;9.80;6.55;;;;;;;15.46;71.76;97908.41;1707729;84;26469;-75
2022/08/09 01:46:39;;;;;;;11.97;6.65;;;;;;;15.40;71.85;97907.15;1707769;83;26313;-76
2022/08/09 01:49:13;;;;;;;11.68;6.42;;;;;;;15.40;71.97;97905.80;1704227;84;27458;-75
2022/08/09 01:51:45;;;;;;;9.45;6.70;;;;;;;15.42;72.04;97909.12;1705242;84;25232;-75
2022/08/09 01:54:14;;;;;;;9.48;6.00;;;;;;;15.43;72.04;97905.34;1628645;88;25822;-75
2022/08/09 01:56:44;;;;;;;10.85;6.42;;;;;;;15.44;72.09;97910.55;1610414;89;26496;-75
2022/08/09 01:59:15;;;;;;;11.43;6.72;;;;;;;15.42;72.15;97908.59;1610204;89;25836;-75
2022/08/09 02:01:43;;;;;;;12.60;6.70;;;;;;;15.42;72.22;97915.39;1610273;89;27385;-75
2022/08/09 02:04:12;;;;;;;9.75;7.53;;;;;;;15.43;72.26;97915.69;1610245;89;25794;-76
2022/08/09 02:09:29;;;;;;;11.65;7.70;;;;;;;15.40;72.38;97913.42;1610227;89;25794;-74
2022/08/09 02:11:57;;;;;;;10.65;7.17;;;;;;;15.41;72.49;97915.61;1610414;89;25927;-75
2022/08/09 02:14:26;;;;;;;12.78;7.00;;;;;;;15.38;72.51;97915.53;1610636;89;28041;-75
2022/08/09 02:16:54;;;;;;;9.15;6.60;;;;;;;15.38;72.67;97919.62;1610224;89;25856;-76
2022/08/09 02:19:21;;;;;;;11.12;7.12;;;;;;;15.39;72.73;97920.45;1610387;89;25869;-76
2022/08/09 02:21:52;;;;;;;10.10;7.58;;;;;;;15.38;72.79;97919.62;1619148;88;26272;-75
2022/08/09 02:24:23;;;;;;;11.40;6.83;;;;;;;15.33;72.79;97924.94;1623624;88;25775;-75
2022/08/09 02:26:53;;;;;;;7.75;6.58;;;;;;;15.31;72.87;97924.85;1618201;88;28127;-75
2022/08/09 02:29:24;;;;;;;10.75;6.97;;;;;;;15.33;72.92;97924.94;1623510;88;25741;-76
2022/08/09 02:31:54;;;;;;;7.60;5.87;;;;;;;15.34;72.98;97923.02;1623356;88;25839;-75
2022/08/09 02:34:28;;;;;;;13.03;6.53;;;;;;;15.34;72.96;97918.41;1623554;88;25685;-77
2022/08/09 02:36:58;;;;;;;11.10;6.95;;;;;;;15.34;72.93;97923.02;1623607;88;25536;-75
2022/08/09 02:39:29;;;;;;;12.70;6.78;;;;;;;15.31;72.98;97922.97;1623545;88;27399;-76
2022/08/09 02:42:00;;;;;;;7.40;5.65;;;;;;;15.30;73.06;97921.83;1623560;88;25888;-76
2022/08/09 02:44:32;;;;;;;13.13;5.90;;;;;;;15.29;73.11;97922.36;1582073;90;25875;-75
2022/08/09 02:47:02;;;;;;;11.97;6.80;;;;;;;15.28;73.26;97920.70;1579722;90;26463;-75
2022/08/09 02:49:32;;;;;;;13.55;6.85;;;;;;;15.28;73.27;97917.98;1582065;90;25303;-75
2022/08/09 02:52:01;;;;;;;12.68;6.67;;;;;;;15.30;73.30;97919.11;1647128;86;27518;-75
2022/08/09 02:54:29;;;;;;;10.63;6.62;;;;;;;15.31;73.33;97921.61;1657471;86;25803;-75
2022/08/09 02:56:56;;;;;;;10.30;6.70;;;;;;;15.32;73.33;97921.91;1696222;84;25404;-74
2022/08/09 02:59:25;;;;;;;10.70;6.67;;;;;;;15.34;73.39;97923.84;1695954;84;25789;-75
2022/08/09 03:01:57;;;;;;;10.72;7.15;;;;;;;15.34;73.41;97917.05;1659587;86;25846;-75
2022/08/09 03:04:22;;;;;;;12.73;7.83;;;;;;;15.36;73.44;97924.45;1688843;84;28137;-75
2022/08/09 03:06:51;;;;;;;10.85;7.90;;;;;;;15.37;73.57;97923.39;1692354;84;25883;-76
2022/08/09 03:09:19;;;;;;;7.53;5.92;;;;;;;15.37;73.57;97920.67;1692264;84;25814;-76
2022/08/09 03:11:48;;;;;;;12.25;7.00;;;;;;;15.37;73.59;97919.31;1659694;86;25751;-77
2022/08/09 03:14:16;;;;;;;9.30;6.47;;;;;;;15.37;73.65;97920.67;1692234;84;25917;-76
2022/08/09 03:16:44;;;;;;;8.23;6.40;;;;;;;15.38;73.67;97920.14;1692336;84;26835;-76
2022/08/09 03:19:11;;;;;;;9.60;6.00;;;;;;;15.39;73.65;97928.08;1692140;84;25769;-76
2022/08/09 03:21:39;;;;;;;11.48;6.60;;;;;;;15.40;73.64;97926.19;1659403;86;25357;-77
2022/08/09 03:24:05;;;;;;;9.93;6.62;;;;;;;15.41;73.59;97921.89;1692310;84;25930;-76
2022/08/09 03:26:33;;;;;;;10.93;6.20;;;;;;;15.42;73.59;97924.91;1692187;84;25774;-75
2022/08/09 03:29:00;;;;;;;8.48;6.10;;;;;;;15.34;73.55;97925.73;1692410;84;27969;-75
2022/08/09 03:31:28;;;;;;;11.22;6.72;;;;;;;15.31;73.74;97928.41;1659266;86;43070;-75
2022/08/09 03:33:57;;;;;;;9.90;6.92;;;;;;;15.33;73.76;97930.38;1692158;84;25881;-76
2022/08/09 03:36:24;;;;;;;7.17;6.03;;;;;;;15.30;73.80;97929.46;1692280;84;26537;-75
2022/08/09 03:38:50;;;;;;;7.50;6.47;;;;;;;15.23;73.79;97934.13;1692392;84;25797;-75
2022/08/09 03:41:17;;;;;;;11.73;6.08;;;;;;;15.19;73.98;97928.87;1659552;86;27442;-77
2022/08/09 03:43:46;;;;;;;9.13;6.30;;;;;;;15.19;74.08;97932.95;1692310;84;25274;-76
2022/08/09 03:46:12;;;;;;;8.43;6.62;;;;;;;15.18;74.11;97934.01;1692035;84;25774;-75
2022/08/09 03:48:40;;;;;;;7.62;5.92;;;;;;;15.20;74.14;97935.98;1721418;83;25782;-75
2022/08/09 03:51:09;;;;;;;9.15;6.50;;;;;;;15.23;74.11;97933.30;1707932;84;25701;-75
2022/08/09 03:53:38;;;;;;;8.03;6.42;;;;;;;15.22;74.13;97933.83;1726108;82;28132;-73
2022/08/09 03:56:06;;;;;;;8.13;6.03;;;;;;;15.20;74.12;97930.54;1707910;84;25752;-74
2022/08/09 03:58:33;;;;;;;9.20;6.42;;;;;;;15.21;74.23;97926.77;1726209;83;25728;-73
2022/08/09 04:01:00;;;;;;;11.78;6.53;;;;;;;15.24;74.18;97929.00;1707346;84;26562;-74
2022/08/09 04:03:28;;;;;;;9.05;6.65;;;;;;;15.28;74.16;97930.74;1725850;83;25751;-77
2022/08/09 04:05:55;;;;;;;10.65;6.10;;;;;;;15.29;74.19;97926.44;1707347;83;27463;-75
2022/08/09 04:08:21;;;;;;;8.80;6.30;;;;;;;15.30;74.27;97928.10;1725743;83;25725;-75
2022/08/09 04:10:47;;;;;;;8.68;6.55;;;;;;;15.28;74.27;97927.49;1707511;84;25635;-77
2022/08/09 04:13:14;;;;;;;8.28;5.62;;;;;;;15.32;74.40;97929.23;1725899;83;25723;-75
2022/08/09 04:15:43;;;;;;;7.70;6.30;;;;;;;15.32;74.50;97921.91;1707524;84;25647;-75
2022/08/09 04:18:09;;;;;;;12.88;6.12;;;;;;;15.31;74.48;97927.58;1725795;83;27411;-75
2022/08/09 04:20:36;;;;;;;13.13;6.47;;;;;;;15.34;74.53;97925.20;1707323;84;25501;-76
2022/08/09 04:23:03;;;;;;;7.30;5.97;;;;;;;15.35;74.55;97930.12;1725858;83;25724;-76
2022/08/09 04:25:29;;;;;;;10.95;6.40;;;;;;;15.35;74.63;97930.95;1707560;84;25735;-75
2022/08/09 04:27:56;;;;;;;10.08;6.50;;;;;;;15.37;74.68;97928.84;1725870;83;25715;-75
2022/08/09 04:30:23;;;;;;;7.30;5.78;;;;;;;15.40;74.68;97939.27;1707300;84;28083;-75
2022/08/09 04:32:50;;;;;;;8.63;5.87;;;;;;;15.41;74.69;97931.41;1726056;81;25609;-75
2022/08/09 04:35:17;;;;;;;10.78;6.17;;;;;;;15.44;74.66;97924.69;1707440;83;25763;-75
2022/08/09 04:37:43;;;;;;;7.08;5.37;;;;;;;15.42;74.61;97934.44;1725894;83;25653;-76
2022/08/09 04:40:11;;;;;;;7.40;5.85;;;;;;;15.44;74.71;97937.76;1707283;84;25703;-77
2022/08/09 04:42:38;;;;;;;8.60;5.37;;;;;;;15.45;74.71;97934.51;1725849;83;27424;-75
2022/08/09 04:45:06;;;;;;;11.48;5.62;;;;;;;15.48;74.73;97934.86;1707483;84;25795;-76
2022/08/09 04:47:32;;;;;;;11.75;6.17;;;;;;;15.50;74.77;97928.66;1725618;83;25782;-75
2022/08/09 04:49:59;;;;;;;10.35;5.87;;;;;;;15.54;74.69;97937.73;1707467;84;26322;-75
2022/08/09 04:52:28;;;;;;;9.03;5.75;;;;;;;15.56;74.66;97935.65;1725670;83;25892;-75
2022/08/09 04:55:00;;;;;;;12.35;6.08;;;;;;;15.58;74.69;97937.62;1707061;84;27511;-76
2022/08/09 04:57:27;;;;;;;8.10;5.50;;;;;;;15.61;74.59;97939.85;1725615;83;25749;-76
2022/08/09 04:59:54;;;;;;;6.65;5.95;;;;;;;15.61;74.64;97937.13;1707022;83;25253;-75
2022/08/09 05:02:23;;;;;;;9.45;4.97;;;;;;;15.63;74.72;97942.65;1725742;83;26627;-75
2022/08/09 05:04:50;;;;;;;10.58;6.00;;;;;;;15.68;74.66;97946.05;1680183;85;25943;-75
2022/08/09 05:07:17;;;;;;;11.97;6.15;;;;;;;15.71;74.66;97949.66;1680387;85;28034;-75
2022/08/09 05:09:43;;;;;;;7.65;5.25;;;;;;;15.68;74.61;97943.33;1680358;85;25504;-75
2022/08/09 05:12:10;;;;;;;8.15;5.83;;;;;;;15.69;74.64;97951.80;1691210;83;25992;-77
2022/08/09 05:14:37;;;;;;;8.73;5.65;;;;;;;15.73;74.58;97949.72;1696658;83;25693;-76
2022/08/09 05:17:03;;;;;;;10.63;5.60;;;;;;;15.76;74.49;97953.88;1696887;83;25687;-75
2022/08/09 05:19:31;;;;;;;12.23;5.62;;;;;;;15.80;74.45;97951.84;1703231;83;28219;-76
2022/08/09 05:21:57;;;;;;;11.57;5.47;;;;;;;15.83;74.50;97957.33;1708775;83;25855;-77
2022/08/09 05:24:24;;;;;;;10.85;6.15;;;;;;;15.84;74.58;97950.83;1708687;83;25514;-76
2022/08/09 05:26:52;;;;;;;9.10;5.30;;;;;;;15.88;74.58;97953.92;1708945;83;25716;-76
2022/08/09 05:29:18;;;;;;;7.20;4.97;;;;;;;15.91;74.43;97958.38;1708875;83;25785;-77
2022/08/09 05:31:46;;;;;;;7.28;5.33;;;;;;;15.95;74.42;97954.11;1708867;83;28162;-76
2022/08/09 05:34:14;;;;;;;7.90;5.17;;;;;;;15.97;74.39;97950.63;1708703;83;25904;-75
2022/08/09 05:36:42;;;;;;;9.10;5.15;;;;;;;16.02;74.40;97948.05;1708950;83;25398;-75
2022/08/09 05:39:09;;;;;;;8.08;5.15;;;;;;;16.03;74.35;97951.08;1708831;83;26334;-76
2022/08/09 05:41:35;;;;;;;6.62;5.08;;;;;;;16.05;74.37;97942.16;1708610;83;25806;-77
2022/08/09 05:44:02;;;;;;;7.17;5.30;;;;;;;16.11;74.50;97946.65;1708952;83;28256;-76
2022/08/09 05:46:29;;;;;;;8.93;5.58;;;;;;;16.17;74.51;97944.90;1708460;83;25959;-76
2022/08/09 05:48:55;;;;;;;7.87;5.47;;;;;;;16.18;74.32;97949.28;1708862;83;25804;-76
2022/08/09 05:51:22;;;;;;;8.85;6.08;;;;;;;16.19;74.27;97954.47;1708782;83;25787;-75
2022/08/09 05:53:49;;;;;;;9.63;5.62;;;;;;;16.28;74.30;97957.70;1708883;83;25779;-75
2022/08/09 05:56:16;;;;;;;9.48;5.80;;;;;;;16.33;74.05;97956.45;1708871;83;27378;-76
2022/08/09 05:58:42;;;;;;;11.55;7.00;;;;;;;16.39;74.00;97955.53;1708708;83;25859;-77
2022/08/09 06:01:10;;;;;;;12.23;7.60;;;;;;;16.44;73.87;97960.25;1708736;83;25763;-77
2022/08/09 06:03:36;;;;;;;10.20;6.97;;;;;;;16.51;73.84;97951.45;1708515;83;25827;-76
2022/08/09 06:06:03;;;;;;;13.30;6.78;;;;;;;16.58;73.68;97956.25;1708838;83;25848;-76
2022/08/09 06:08:29;;;;;;;11.85;6.08;;;;;;;16.61;73.63;97946.77;1726170;82;28193;-77
2022/08/09 06:10:56;;;;;;;8.60;5.50;;;;;;;16.65;73.46;97953.45;1724257;83;25843;-76
2022/08/09 06:13:23;;;;;;;10.93;4.60;;;;;;;16.71;73.51;97952.48;1736832;82;25704;-77
2022/08/09 06:15:51;;;;;;;5.92;4.60;;;;;;;16.79;73.31;97954.31;1736497;82;25729;-77
2022/08/09 06:18:19;;;;;;;9.33;4.10;;;;;;;16.86;73.01;97956.41;1736745;82;25657;-76
2022/08/09 06:20:46;;;;;;;4.65;3.80;;;;;;;16.93;72.81;97953.02;1736795;82;27369;-76
2022/08/09 06:23:12;;;;;;;6.33;3.55;;;;;;;17.01;72.59;97959.19;1736672;82;25732;-75
2022/08/09 06:25:39;;;;;;;6.65;3.90;;;;;;;17.08;72.24;97957.14;1736669;82;25664;-76
2022/08/09 06:28:06;;;;;;;7.33;3.92;;;;;;;17.12;71.81;97952.34;1736799;82;25819;-76
2022/08/09 06:30:34;;;;;;;7.50;3.52;;;;;;;17.17;71.65;97955.70;1736904;82;26839;-76
2022/08/09 06:33:01;;;;;;;6.78;3.30;;;;;;;17.26;71.24;97950.19;1736669;82;27342;-76
2022/08/09 06:35:28;;;;;;;5.42;3.30;;;;;;;17.34;70.86;97950.34;1736648;82;25650;-76
2022/08/09 06:37:55;;;;;;;9.15;3.27;;;;;;;17.41;70.60;97950.48;1733823;82;25687;-77
2022/08/09 06:40:22;;;;;;;4.67;3.27;;;;;;;17.48;70.23;97952.56;1721349;82;26928;-77
2022/08/09 06:42:48;;;;;;;5.72;3.42;;;;;;;17.57;70.10;97953.83;1729174;82;25767;-76
2022/08/09 06:45:15;;;;;;;7.72;3.40;;;;;;;17.66;70.02;97949.37;1729356;82;28174;-77
2022/08/09 06:47:41;;;;;;;5.65;2.85;;;;;;;17.75;69.74;97957.48;1729372;82;25694;-76
2022/08/09 06:50:09;;;;;;;9.03;3.35;;;;;;;17.81;69.47;97959.23;1729392;82;25268;-75
2022/08/09 06:52:36;;;;;;;4.78;2.55;;;;;;;17.88;69.33;97954.44;1729406;82;25776;-76
2022/08/09 06:55:03;;;;;;;5.10;2.80;;;;;;;17.96;69.00;97952.69;1729429;82;25479;-75
2022/08/09 06:57:29;;;;;;;8.33;2.75;;;;;;;18.03;68.63;97951.98;1729402;81;28241;-76
2022/08/09 06:59:56;;;;;;;7.70;2.90;;;;;;;18.11;68.46;97957.08;1729253;82;25716;-76
2022/08/09 07:02:22;;;;;;;5.75;2.72;;;;;;;18.20;68.21;97957.48;1731654;82;25459;-76
2022/08/09 07:04:49;;;;;;;3.92;2.67;;;;;;;18.29;68.19;97956.00;1728532;82;25729;-77
2022/08/09 07:07:16;;;;;;;4.55;2.90;;;;;;;18.36;68.05;97953.39;1732602;82;26747;-77
2022/08/09 07:09:43;;;;;;;6.72;2.90;;;;;;;18.45;67.59;97955.73;1750305;81;28145;-77
2022/08/09 07:12:10;;;;;;;4.97;2.65;;;;;;;18.52;67.39;97953.11;1731025;82;25448;-76
2022/08/09 07:14:37;;;;;;;8.30;5.40;;;;;;;18.59;67.18;97963.92;1727839;82;25886;-77
2022/08/09 07:17:04;;;;;;;10.35;4.22;;;;;;;18.66;66.79;97964.58;1733225;82;25791;-77
2022/08/09 07:19:30;;;;;;;6.08;3.92;;;;;;;18.74;66.48;97961.41;1733011;82;25892;-77
2022/08/09 07:21:57;;;;;;;7.80;3.70;;;;;;;18.87;66.09;97969.27;1733253;82;27319;-77
2022/08/09 07:24:24;;;;;;;7.62;3.25;;;;;;;18.97;65.79;97965.31;1732774;82;26302;-78
2022/08/09 07:26:50;;;;;;;6.33;2.75;;;;;;;19.08;65.61;97965.74;1729100;82;26372;-77
2022/08/09 07:29:17;;;;;;;4.15;2.80;;;;;;;19.24;65.85;97975.54;1734285;82;26344;-77
2022/08/09 07:31:43;;;;;;;6.37;2.80;;;;;;;19.39;65.77;97970.27;1735010;81;26368;-77
2022/08/09 07:34:10;;;;;;;4.55;2.50;;;;;;;19.54;65.25;97974.62;1734928;82;27450;-76
2022/08/09 07:36:36;;;;;;;6.15;2.45;;;;;;;19.71;65.09;97975.35;1734391;82;25715;-79
2022/08/09 07:39:04;;;;;;;3.25;2.40;;;;;;;19.92;64.68;97974.23;1728794;82;25682;-77
2022/08/09 07:41:30;;;;;;;6.22;2.50;;;;;;;20.06;64.56;97974.91;1731713;82;26385;-77
2022/08/09 07:43:57;;;;;;;5.45;2.37;;;;;;;20.20;63.99;97973.96;1731687;82;25707;-77
2022/08/09 07:46:24;;;;;;;3.05;2.05;;;;;;;20.32;63.69;97981.48;1731819;82;27382;-78
2022/08/09 07:48:51;;;;;;;6.17;2.33;;;;;;;20.45;63.55;97989.31;1731607;82;25730;-77
2022/08/09 07:51:18;;;;;;;9.23;2.52;;;;;;;20.54;62.77;97987.45;1731821;82;25671;-78
2022/08/09 07:53:45;;;;;;;4.65;2.33;;;;;;;20.58;62.36;97983.94;1731717;82;26554;-77
2022/08/09 07:56:11;;;;;;;5.30;2.20;;;;;;;20.64;62.43;97982.08;1731861;82;25746;-77
2022/08/09 07:58:38;;;;;;;4.75;1.90;;;;;;;20.73;61.77;97984.62;1731901;82;27424;-78
2022/08/09 08:01:05;;;;;;;4.20;2.58;;;;;;;20.73;61.77;97984.62;1733263;82;25758;-78
2022/08/09 08:03:32;;;;;;;3.62;2.22;;;;;;;20.73;61.18;97985.98;1747505;82;25718;-78
2022/08/09 08:05:59;;;;;;;4.92;2.05;;;;;;;20.71;61.16;97984.88;1747453;82;26407;-77
2022/08/09 08:08:25;;;;;;;5.00;2.55;;;;;;;20.73;60.94;97991.48;1747523;82;25864;-78
2022/08/09 08:10:52;;;;;;;5.25;1.95;;;;;;;20.76;60.91;97989.59;1747767;82;27407;-77
2022/08/09 08:13:19;;;;;;;7.72;2.50;;;;;;;20.78;60.41;97991.50;1747805;82;25667;-77
2022/08/09 08:15:45;;;;;;;3.62;2.40;;;;;;;20.77;60.29;97995.36;1747822;82;25928;-78
2022/08/09 08:18:12;;;;;;;4.15;2.70;;;;;;;20.71;60.19;97993.65;1747912;82;25789;-77
2022/08/09 08:20:38;;;;;;;5.72;2.60;;;;;;;20.71;60.19;97993.65;1747774;82;25739;-77
2022/08/09 08:23:06;;;;;;;3.42;2.27;;;;;;;20.73;59.89;97996.96;1747713;82;27366;-77
2022/08/09 08:25:33;;;;;;;8.20;2.72;;;;;;;20.73;59.97;97988.19;1747743;82;25698;-78
2022/08/09 08:28:01;;;;;;;5.87;2.50;;;;;;;20.76;59.95;97992.33;1747780;82;25701;-77
2022/08/09 08:30:27;;;;;;;4.85;2.92;;;;;;;20.77;60.21;97992.62;1747771;82;25779;-77
2022/08/09 08:32:54;;;;;;;4.90;2.98;;;;;;;20.70;60.08;97981.02;1747816;82;25435;-79
2022/08/09 08:35:21;;;;;;;4.42;2.60;;;;;;;20.85;59.42;97998.98;1747770;82;27362;-77
2022/08/09 08:37:47;;;;;;;8.10;3.02;;;;;;;20.87;59.56;97997.34;1747553;82;25465;-79
2022/08/09 08:40:14;;;;;;;4.78;2.72;;;;;;;20.91;59.50;98000.66;1747922;82;25701;-79
2022/08/09 08:42:43;;;;;;;5.33;2.47;;;;;;;21.00;59.34;97996.90;1747955;82;26306;-77
2022/08/09 08:45:11;;;;;;;4.97;2.58;;;;;;;21.22;59.67;98003.66;1661021;86;25774;-78
2022/08/09 08:47:41;;;;;;;4.58;2.52;;;;;;;21.72;59.22;98005.30;1661050;86;27364;-78
2022/08/09 08:50:08;;;;;;;8.33;2.70;;;;;;;22.37;59.38;98001.09;1660895;86;26430;-79
2022/08/09 08:52:35;;;;;;;4.97;3.00;;;;;;;23.12;59.06;97995.36;1657400;86;25774;-78
2022/08/09 08:55:01;;;;;;;4.95;2.60;;;;;;;23.62;57.72;98003.25;1661114;86;25719;-78
2022/08/09 08:57:28;;;;;;;4.42;2.37;;;;;;;24.03;57.11;98005.27;1661052;86;25365;-78
2022/08/09 08:59:55;;;;;;;6.10;2.35;;;;;;;24.42;57.22;97999.83;1661134;86;27383;-78
2022/08/09 09:02:27;;;;;;;6.00;2.35;;;;;;;24.84;56.63;97996.48;1660922;86;25859;-79
2022/08/09 09:04:58;;;;;;;7.45;3.12;;;;;;;25.02;55.85;97986.13;1660748;86;25822;-80
2022/08/09 09:07:29;;;;;;;5.55;2.37;;;;;;;25.17;54.97;97997.59;1588895;90;25820;-79
2022/08/09 09:09:57;;;;;;;5.75;2.20;;;;;;;25.06;54.79;97996.04;1588927;90;25897;-77
2022/08/09 09:12:27;;;;;;;5.75;2.45;;;;;;;24.93;54.12;97996.71;1589136;90;27479;-79
2022/08/09 09:14:53;;;;;;;3.27;2.30;;;;;;;24.86;54.21;97997.03;1588938;90;25864;-79
2022/08/09 09:17:20;;;;;;;4.30;2.55;;;;;;;24.87;54.27;98001.99;1589113;90;25809;-79
2022/08/09 09:19:46;;;;;;;5.83;2.87;;;;;;;24.83;54.04;98002.30;1589037;90;25834;-78
2022/08/09 09:22:18;;;;;;;4.92;2.05;;;;;;;24.77;53.90;98003.70;1589049;90;26866;-78
2022/08/09 09:24:53;;;;;;;;;;;;;;;24.65;53.87;98004.63;1591467;90;28188;-78
2022/08/09 09:27:26;;;;;;;5.97;2.55;;;;;;;24.69;53.22;98002.13;1515912;94;25893;-78
2022/08/09 09:29:55;;;;;;;5.03;2.33;;;;;;;24.58;53.72;98001.38;1493368;96;25880;-78
2022/08/09 09:32:25;;;;;;;4.50;2.50;;;;;;;24.60;53.45;98012.14;1493541;96;25889;-78
2022/08/09 09:35:05;;;;;;;7.22;2.60;;;;;;;24.61;53.45;98006.34;1493358;96;25591;-78
2022/08/09 09:37:31;;;;;;;3.87;2.60;;;;;;;24.70;53.52;98004.60;1493581;96;27493;-78
2022/08/09 09:39:58;;;;;;;7.60;2.47;;;;;;;24.78;53.10;98010.05;1493533;96;25941;-78
2022/08/09 09:42:28;;;;;;;3.77;2.27;;;;;;;24.98;53.08;98018.77;1539778;91;25781;-79
2022/08/09 09:45:06;;;;;;;3.83;2.30;;;;;;;25.14;53.14;98003.69;1564465;91;25812;-78
2022/08/09 09:47:33;;;;;;;5.85;2.62;;;;;;;25.13;52.97;98008.95;1564516;91;25785;-77
2022/08/09 09:50:01;;;;;;;5.62;2.45;;;;;;;25.19;52.53;98005.59;1564529;91;27478;-77
2022/08/09 09:52:28;;;;;;;5.10;2.65;;;;;;;25.13;52.34;98011.70;1564659;91;25894;-77
2022/08/09 09:55:08;;;;;;;6.00;2.50;;;;;;;25.00;52.25;98011.82;1564339;91;25897;-79
2022/08/09 09:57:34;;;;;;;6.35;3.00;;;;;;;24.77;51.58;98014.75;1564380;91;25829;-77
2022/08/09 10:00:01;;;;;;;2.98;2.40;;;;;;;24.63;52.01;98013.78;1564556;91;25852;-77
2022/08/09 10:02:28;;;;;;;4.10;2.62;;;;;;;24.60;52.09;98018.48;1552958;90;28346;-78
2022/08/09 10:05:08;;;;;;;7.50;2.40;;;;;;;24.62;52.01;98017.64;1578370;90;25919;-77
2022/08/09 10:07:35;;;;;;;5.67;3.25;;;;;;;24.64;52.19;98016.78;1588397;90;25415;-79
2022/08/09 10:10:04;;;;;;;6.30;3.15;;;;;;;24.59;51.92;98014.08;1588442;90;25750;-79
2022/08/09 10:12:37;;;;;;;5.95;2.77;;;;;;;24.57;52.15;98021.81;1588458;90;25989;-78
2022/08/09 10:15:15;;;;;;;8.13;3.17;;;;;;;24.59;52.00;98015.45;1588239;90;28255;-78
2022/08/09 10:17:46;;;;;;;5.12;2.87;;;;;;;24.54;51.86;98018.79;1588479;90;25826;-79
2022/08/09 10:20:25;;;;;;;7.15;3.05;;;;;;;24.59;52.57;98018.77;1588281;90;26028;-79
2022/08/09 10:22:59;;;;;;;6.28;2.85;;;;;;;24.70;52.29;98012.06;1594569;87;25787;-79
2022/08/09 10:25:26;;;;;;;6.65;2.90;;;;;;;24.99;52.42;98012.97;1640664;83;26805;-78
2022/08/09 10:27:53;;;;;;;7.47;3.20;;;;;;;25.16;51.91;98008.92;1664141;86;27585;-78
2022/08/09 10:30:19;;;;;;;6.12;2.72;;;;;;;25.09;51.77;98016.19;1724438;83;25716;-78
2022/08/09 10:32:47;;;;;;;5.62;2.92;;;;;;;25.16;52.03;98016.66;1664160;86;25779;-78
2022/08/09 10:35:14;;;;;;;6.97;2.65;;;;;;;25.18;51.93;98013.05;1724365;83;25761;-77
2022/08/09 10:37:42;;;;;;;9.25;2.90;;;;;;;25.17;51.48;98014.16;1664165;86;25890;-80
2022/08/09 10:40:11;;;;;;;4.67;2.67;;;;;;;24.95;51.06;98011.88;1724023;83;27435;-78
2022/08/09 10:42:38;;;;;;;6.00;3.05;;;;;;;24.77;51.33;98017.51;1664054;86;25949;-79
2022/08/09 10:45:09;;;;;;;6.90;2.98;;;;;;;24.56;51.15;98021.54;1724424;83;25790;-78
2022/08/09 10:47:56;;;;;;;6.28;3.10;;;;;;;24.44;51.32;98020.24;1664155;86;26486;-80
2022/08/09 10:53:58;;;;;;;10.65;2.90;;;;;;;24.11;51.26;98029.52;1663952;86;27461;-79
2022/08/09 10:56:32;;;;;;;3.80;2.77;;;;;;;24.06;51.64;98024.83;1723996;83;25788;-79
2022/08/09 10:59:02;;;;;;;10.43;2.80;;;;;;;23.83;51.46;98024.11;1669900;85;25864;-78
2022/08/09 11:01:37;;;;;;;6.58;2.80;;;;;;;23.79;51.81;98018.88;1666307;85;26982;-79
2022/08/09 11:04:19;;;;;;;4.83;2.47;;;;;;;23.84;52.11;98024.94;1657350;85;25802;-79
2022/08/09 11:07:03;;;;;;;5.42;2.47;;;;;;;23.86;52.26;98019.42;1637581;87;28256;-77
2022/08/09 11:09:47;;;;;;;5.95;2.62;;;;;;;23.98;52.31;98017.16;1613963;88;25877;-78
2022/08/09 11:12:22;;;;;;;3.10;2.17;;;;;;;24.07;51.95;98018.77;1614058;88;25872;-78
2022/08/09 11:15:08;;;;;;;4.42;2.10;;;;;;;24.10;52.06;98017.38;1613873;88;26566;-78
2022/08/09 11:17:44;;;;;;;3.87;2.27;;;;;;;24.16;51.97;98021.75;1612371;88;25821;-77
2022/08/09 11:20:11;;;;;;;5.83;2.30;;;;;;;24.21;51.77;98012.08;1613935;88;27474;-78
2022/08/09 11:22:51;;;;;;;5.55;2.47;;;;;;;24.15;51.26;98009.09;1613848;88;25768;-77
2022/08/09 11:25:21;;;;;;;6.55;2.22;;;;;;;24.12;51.29;98015.17;1614094;88;25836;-77
2022/08/09 11:27:51;;;;;;;3.75;2.37;;;;;;;24.22;51.42;98008.21;1613973;88;25800;-78
2022/08/09 11:30:31;;;;;;;5.28;2.25;;;;;;;24.31;51.32;98014.80;1614060;88;25926;-80
2022/08/09 11:33:20;;;;;;;6.17;2.40;;;;;;;24.40;51.42;98000.11;1613918;88;28432;-78
2022/08/09 11:35:54;;;;;;;5.75;2.40;;;;;;;24.37;51.28;98003.47;1614081;88;25856;-80
2022/08/09 11:38:31;;;;;;;3.87;2.30;;;;;;;24.43;51.33;98001.48;1579620;90;25871;-77
2022/08/09 11:41:12;;;;;;;4.78;2.50;;;;;;;24.48;51.30;97995.94;1579501;90;25717;-79
2022/08/09 11:43:44;;;;;;;5.12;2.33;;;;;;;24.39;50.54;97995.70;1578112;90;26908;-77
2022/08/09 11:46:10;;;;;;;3.00;2.23;;;;;;;24.32;50.10;97997.14;1564465;91;27540;-79
2022/08/09 11:48:50;;;;;;;4.22;2.65;;;;;;;24.19;50.08;97997.19;1564558;91;26577;-79